createdAt,value
2017-05-09T00:00:01.486Z,4.8
2017-05-09T00:00:42.305Z,4.82
2017-05-09T00:01:23.190Z,4.82
2017-05-09T00:02:04.064Z,4.87
2017-05-09T00:02:44.948Z,4.82
2017-05-09T00:03:25.828Z,4.8
2017-05-09T00:04:06.711Z,4.75
2017-05-09T00:04:47.608Z,4.75
2017-05-09T00:05:28.486Z,4.8
2017-05-09T00:06:09.358Z,4.75
2017-05-09T00:06:50.232Z,4.77
2017-05-09T00:07:31.131Z,4.75
2017-05-09T00:08:12.015Z,4.75
2017-05-09T00:08:52.900Z,4.75
2017-05-09T00:09:33.791Z,4.74
2017-05-09T00:10:14.666Z,4.73
2017-05-09T00:10:55.548Z,4.74
2017-05-09T00:11:36.440Z,4.73
2017-05-09T00:12:17.298Z,4.8
2017-05-09T00:12:58.175Z,4.78
2017-05-09T00:13:39.066Z,4.74
2017-05-09T00:14:19.943Z,4.87
2017-05-09T00:15:00.824Z,4.8
2017-05-09T00:15:41.708Z,4.78
2017-05-09T00:16:22.595Z,4.82
2017-05-09T00:17:03.462Z,4.75
2017-05-09T00:17:44.332Z,4.8
2017-05-09T00:18:25.209Z,4.77
2017-05-09T00:19:06.094Z,4.75
2017-05-09T00:19:46.969Z,4.86
2017-05-09T00:20:27.861Z,4.78
2017-05-09T00:21:08.752Z,4.82
2017-05-09T00:21:49.642Z,4.77
2017-05-09T00:22:30.528Z,4.75
2017-05-09T00:23:11.436Z,4.89
2017-05-09T00:23:52.314Z,4.93
2017-05-09T00:24:33.205Z,4.89
2017-05-09T00:25:14.071Z,4.87
2017-05-09T00:25:54.952Z,4.9
2017-05-09T00:26:35.827Z,4.94
2017-05-09T00:27:16.704Z,5
2017-05-09T00:27:57.605Z,4.9
2017-05-09T00:28:38.475Z,4.92
2017-05-09T00:29:19.355Z,4.99
2017-05-09T00:30:00.233Z,4.94
2017-05-09T00:30:41.160Z,5.04
2017-05-09T00:31:22.043Z,5.02
2017-05-09T00:32:02.918Z,4.97
2017-05-09T00:32:43.776Z,4.96
2017-05-09T00:33:24.670Z,5.08
2017-05-09T00:34:05.557Z,5.08
2017-05-09T00:34:46.438Z,5.08
2017-05-09T00:35:27.320Z,5.05
2017-05-09T00:36:08.207Z,4.96
2017-05-09T00:36:49.094Z,4.94
2017-05-09T00:37:29.969Z,5.05
2017-05-09T00:38:10.851Z,4.94
2017-05-09T00:38:51.738Z,4.97
2017-05-09T00:39:32.624Z,5.04
2017-05-09T00:40:13.496Z,5.04
2017-05-09T00:40:54.375Z,4.97
2017-05-09T00:41:35.245Z,5.1
2017-05-09T00:42:16.135Z,4.99
2017-05-09T00:42:57.014Z,4.9
2017-05-09T00:43:37.894Z,4.99
2017-05-09T00:44:18.768Z,4.94
2017-05-09T00:44:59.637Z,4.97
2017-05-09T00:45:40.521Z,4.92
2017-05-09T00:46:21.405Z,4.96
2017-05-09T00:47:02.285Z,5.04
2017-05-09T00:47:43.167Z,4.99
2017-05-09T00:48:24.053Z,5
2017-05-09T00:49:04.932Z,5
2017-05-09T00:49:45.819Z,5.05
2017-05-09T00:50:26.756Z,4.99
2017-05-09T00:51:07.637Z,5.04
2017-05-09T00:51:48.521Z,5.02
2017-05-09T00:52:29.398Z,5.05
2017-05-09T00:53:10.279Z,5.04
2017-05-09T00:53:51.151Z,4.97
2017-05-09T00:54:32.036Z,5.08
2017-05-09T00:55:12.923Z,5.11
2017-05-09T00:55:53.808Z,5.12
2017-05-09T00:56:34.716Z,5.05
2017-05-09T00:57:15.589Z,5.04
2017-05-09T00:57:56.467Z,5.08
2017-05-09T00:58:37.348Z,5.04
2017-05-09T00:59:18.226Z,5.1
2017-05-09T00:59:59.107Z,5.1
2017-05-09T01:00:39.995Z,5.1
2017-05-09T01:01:20.865Z,5.1
2017-05-09T01:02:01.732Z,5.07
2017-05-09T01:02:42.629Z,5.11
2017-05-09T01:03:23.509Z,5.05
2017-05-09T01:04:04.395Z,5.1
2017-05-09T01:04:45.285Z,5.05
2017-05-09T01:05:26.167Z,5.08
2017-05-09T01:06:07.057Z,5.1
2017-05-09T01:06:47.938Z,5.07
2017-05-09T01:07:28.839Z,5.05
2017-05-09T01:08:09.732Z,5.1
2017-05-09T01:08:50.607Z,5.07
2017-05-09T01:09:31.502Z,5.08
2017-05-09T01:10:12.345Z,4.97
2017-05-09T01:10:53.234Z,5
2017-05-09T01:11:34.108Z,5
2017-05-09T01:12:14.996Z,5.04
2017-05-09T01:12:55.882Z,4.92
2017-05-09T01:13:36.773Z,4.99
2017-05-09T01:14:17.644Z,4.97
2017-05-09T01:14:58.533Z,4.92
2017-05-09T01:15:39.416Z,4.87
2017-05-09T01:16:20.286Z,4.9
2017-05-09T01:17:01.163Z,4.97
2017-05-09T01:17:42.036Z,4.97
2017-05-09T01:18:22.935Z,4.87
2017-05-09T01:19:03.811Z,4.94
2017-05-09T01:19:44.699Z,4.99
2017-05-09T01:20:25.561Z,4.97
2017-05-09T01:21:53.793Z,4.94
2017-05-09T01:22:34.706Z,4.93
2017-05-09T01:23:15.587Z,4.93
2017-05-09T01:23:56.467Z,4.96
2017-05-09T01:24:37.352Z,4.89
2017-05-09T01:25:18.228Z,4.84
2017-05-09T01:25:59.101Z,4.9
2017-05-09T01:26:39.980Z,4.87
2017-05-09T01:27:20.858Z,4.96
2017-05-09T01:28:01.742Z,4.93
2017-05-09T01:28:42.611Z,4.87
2017-05-09T01:29:23.510Z,4.86
2017-05-09T01:30:04.392Z,4.87
2017-05-09T01:30:45.273Z,4.86
2017-05-09T01:31:26.159Z,4.97
2017-05-09T01:32:07.038Z,4.87
2017-05-09T01:32:47.912Z,4.86
2017-05-09T01:33:28.799Z,4.92
2017-05-09T01:34:09.675Z,4.89
2017-05-09T01:34:50.563Z,4.8
2017-05-09T01:35:31.449Z,4.84
2017-05-09T01:36:12.334Z,4.89
2017-05-09T01:36:53.248Z,4.9
2017-05-09T01:37:34.127Z,4.82
2017-05-09T01:38:15.014Z,4.86
2017-05-09T01:38:55.893Z,4.78
2017-05-09T01:39:36.773Z,4.75
2017-05-09T01:40:17.659Z,4.74
2017-05-09T01:40:58.552Z,4.73
2017-05-09T01:41:39.436Z,4.8
2017-05-09T01:42:20.316Z,4.82
2017-05-09T01:43:01.192Z,4.84
2017-05-09T01:43:42.085Z,4.75
2017-05-09T01:45:20.498Z,4.75
2017-05-09T01:46:01.363Z,4.8
2017-05-09T01:46:42.244Z,4.7
2017-05-09T01:47:23.114Z,4.73
2017-05-09T01:48:04.004Z,4.73
2017-05-09T01:48:44.872Z,4.75
2017-05-09T01:49:25.753Z,4.68
2017-05-09T01:50:06.633Z,4.75
2017-05-09T01:50:47.512Z,4.58
2017-05-09T01:51:28.395Z,4.73
2017-05-09T01:52:09.281Z,4.67
2017-05-09T01:52:50.161Z,4.7
2017-05-09T01:53:31.035Z,4.67
2017-05-09T01:54:11.928Z,4.77
2017-05-09T01:54:52.804Z,4.7
2017-05-09T01:55:33.687Z,4.73
2017-05-09T01:56:14.571Z,4.7
2017-05-09T01:56:55.442Z,4.75
2017-05-09T01:57:36.321Z,4.62
2017-05-09T01:58:17.206Z,4.75
2017-05-09T01:58:58.081Z,4.68
2017-05-09T01:59:38.961Z,4.71
2017-05-09T02:00:19.841Z,4.68
2017-05-09T02:01:00.720Z,4.63
2017-05-09T02:01:41.599Z,4.75
2017-05-09T02:02:22.485Z,4.58
2017-05-09T02:03:03.363Z,4.75
2017-05-09T02:03:44.255Z,4.58
2017-05-09T02:04:25.136Z,4.75
2017-05-09T02:05:06.013Z,4.62
2017-05-09T02:05:46.905Z,4.66
2017-05-09T02:06:27.786Z,4.74
2017-05-09T02:07:08.665Z,4.6
2017-05-09T02:07:49.532Z,4.63
2017-05-09T02:08:30.426Z,4.62
2017-05-09T02:09:11.310Z,4.67
2017-05-09T02:09:52.190Z,4.55
2017-05-09T02:10:33.052Z,4.67
2017-05-09T02:11:13.930Z,4.67
2017-05-09T02:11:54.819Z,4.6
2017-05-09T02:12:35.690Z,4.55
2017-05-09T02:13:16.579Z,4.6
2017-05-09T02:13:57.446Z,4.48
2017-05-09T02:14:38.331Z,4.55
2017-05-09T02:15:19.209Z,4.49
2017-05-09T02:16:00.091Z,4.56
2017-05-09T02:16:40.955Z,4.62
2017-05-09T02:17:21.833Z,4.59
2017-05-09T02:18:02.712Z,4.62
2017-05-09T02:18:43.601Z,4.67
2017-05-09T02:19:24.482Z,4.59
2017-05-09T02:20:05.353Z,4.55
2017-05-09T02:20:46.250Z,4.53
2017-05-09T02:21:27.126Z,4.58
2017-05-09T02:22:08.010Z,4.5
2017-05-09T02:22:48.886Z,4.59
2017-05-09T02:23:29.772Z,4.53
2017-05-09T02:24:10.657Z,4.58
2017-05-09T02:24:51.538Z,4.52
2017-05-09T02:25:32.424Z,4.52
2017-05-09T02:26:13.302Z,4.62
2017-05-09T02:26:54.167Z,4.5
2017-05-09T02:27:35.070Z,4.48
2017-05-09T02:28:15.930Z,4.53
2017-05-09T02:28:56.817Z,4.55
2017-05-09T02:29:37.682Z,4.55
2017-05-09T02:30:18.554Z,4.55
2017-05-09T02:30:59.436Z,4.5
2017-05-09T02:31:40.323Z,4.58
2017-05-09T02:32:21.203Z,4.41
2017-05-09T02:33:02.066Z,4.55
2017-05-09T02:33:42.943Z,4.55
2017-05-09T02:34:23.810Z,4.56
2017-05-09T02:35:04.688Z,4.53
2017-05-09T02:35:45.572Z,4.58
2017-05-09T02:36:26.452Z,4.56
2017-05-09T02:37:07.338Z,4.63
2017-05-09T02:37:48.219Z,4.58
2017-05-09T02:38:29.107Z,4.67
2017-05-09T02:39:09.987Z,4.68
2017-05-09T02:39:50.868Z,4.75
2017-05-09T02:40:31.732Z,4.67
2017-05-09T02:41:12.610Z,4.71
2017-05-09T02:41:53.489Z,4.78
2017-05-09T02:42:34.364Z,4.78
2017-05-09T02:43:15.247Z,4.77
2017-05-09T02:43:56.117Z,4.8
2017-05-09T02:44:36.986Z,4.87
2017-05-09T02:45:17.891Z,4.8
2017-05-09T02:45:58.775Z,4.78
2017-05-09T02:46:39.652Z,4.77
2017-05-09T02:47:20.522Z,4.8
2017-05-09T02:48:01.412Z,4.74
2017-05-09T02:48:42.289Z,4.74
2017-05-09T02:49:23.172Z,4.8
2017-05-09T02:50:04.046Z,4.8
2017-05-09T02:50:44.963Z,4.92
2017-05-09T02:51:25.812Z,4.87
2017-05-09T02:52:06.685Z,4.92
2017-05-09T02:52:47.565Z,4.92
2017-05-09T02:53:28.464Z,4.96
2017-05-09T02:54:09.345Z,4.94
2017-05-09T02:54:50.224Z,4.94
2017-05-09T02:55:31.121Z,4.97
2017-05-09T02:56:11.995Z,5.02
2017-05-09T02:56:52.869Z,5.04
2017-05-09T02:57:33.757Z,5.05
2017-05-09T02:58:14.630Z,4.97
2017-05-09T02:58:55.506Z,5.07
2017-05-09T02:59:36.384Z,5.1
2017-05-09T03:00:17.261Z,5.1
2017-05-09T03:00:58.153Z,5.15
2017-05-09T03:01:39.051Z,5.14
2017-05-09T03:02:19.943Z,5.17
2017-05-09T03:03:00.825Z,5.15
2017-05-09T03:03:41.698Z,5.15
2017-05-09T03:04:22.575Z,5.2
2017-05-09T03:05:03.435Z,5.21
2017-05-09T03:05:44.317Z,5.17
2017-05-09T03:06:25.197Z,5.25
2017-05-09T03:07:06.081Z,5.25
2017-05-09T03:07:46.961Z,5.25
2017-05-09T03:08:27.854Z,5.25
2017-05-09T03:09:08.724Z,5.25
2017-05-09T03:09:49.613Z,5.2
2017-05-09T03:10:30.495Z,5.25
2017-05-09T03:11:11.377Z,5.32
2017-05-09T03:11:52.271Z,5.32
2017-05-09T03:12:33.148Z,5.32
2017-05-09T03:13:14.022Z,5.29
2017-05-09T03:13:54.897Z,5.36
2017-05-09T03:14:35.773Z,5.39
2017-05-09T03:15:16.686Z,5.33
2017-05-09T03:15:57.566Z,5.38
2017-05-09T03:16:38.445Z,5.39
2017-05-09T03:17:19.331Z,5.39
2017-05-09T03:18:00.215Z,5.38
2017-05-09T03:18:41.094Z,5.41
2017-05-09T03:19:21.960Z,5.43
2017-05-09T03:20:02.836Z,5.43
2017-05-09T03:20:43.715Z,5.39
2017-05-09T03:21:24.637Z,5.38
2017-05-09T03:22:05.478Z,5.38
2017-05-09T03:22:46.352Z,5.47
2017-05-09T03:23:27.232Z,5.36
2017-05-09T03:24:08.112Z,5.41
2017-05-09T03:24:49.012Z,5.51
2017-05-09T03:25:29.886Z,5.51
2017-05-09T03:26:10.758Z,5.44
2017-05-09T03:26:51.652Z,5.5
2017-05-09T03:27:32.542Z,5.46
2017-05-09T03:28:13.409Z,5.43
2017-05-09T03:28:54.304Z,5.53
2017-05-09T03:29:35.174Z,5.46
2017-05-09T03:30:16.068Z,5.47
2017-05-09T03:30:56.933Z,5.5
2017-05-09T03:31:37.811Z,5.48
2017-05-09T03:32:18.700Z,5.57
2017-05-09T03:32:59.584Z,5.59
2017-05-09T03:33:40.461Z,5.61
2017-05-09T03:34:21.350Z,5.56
2017-05-09T03:35:02.217Z,5.59
2017-05-09T03:35:43.100Z,5.57
2017-05-09T03:36:23.996Z,5.59
2017-05-09T03:37:04.895Z,5.59
2017-05-09T03:37:45.737Z,5.56
2017-05-09T03:38:26.617Z,5.59
2017-05-09T03:39:07.498Z,5.53
2017-05-09T03:39:48.389Z,5.61
2017-05-09T03:40:29.259Z,5.56
2017-05-09T03:41:10.126Z,5.61
2017-05-09T03:41:51.007Z,5.64
2017-05-09T03:42:31.881Z,5.66
2017-05-09T03:43:12.768Z,5.61
2017-05-09T03:43:53.651Z,5.72
2017-05-09T03:44:34.529Z,5.69
2017-05-09T03:45:15.474Z,5.66
2017-05-09T03:45:56.322Z,5.71
2017-05-09T03:46:37.205Z,5.68
2017-05-09T03:47:18.082Z,5.84
2017-05-09T03:47:58.995Z,5.8
2017-05-09T03:48:39.890Z,5.69
2017-05-09T03:49:20.739Z,5.75
2017-05-09T03:50:01.617Z,5.71
2017-05-09T03:50:42.512Z,5.73
2017-05-09T03:51:23.382Z,5.83
2017-05-09T03:52:04.253Z,5.79
2017-05-09T03:52:45.134Z,5.82
2017-05-09T03:53:26.016Z,5.83
2017-05-09T03:54:06.892Z,5.86
2017-05-09T03:54:47.780Z,5.83
2017-05-09T03:55:28.666Z,5.9
2017-05-09T03:56:09.544Z,5.89
2017-05-09T03:56:50.464Z,5.89
2017-05-09T03:57:31.316Z,5.94
2017-05-09T03:58:12.210Z,5.97
2017-05-09T03:58:53.089Z,5.98
2017-05-09T03:59:33.982Z,5.99
2017-05-09T04:00:14.863Z,5.97
2017-05-09T04:00:55.746Z,5.94
2017-05-09T04:01:36.631Z,6.08
2017-05-09T04:02:17.517Z,6.02
2017-05-09T04:02:58.422Z,6.11
2017-05-09T04:03:39.315Z,6.08
2017-05-09T04:04:20.194Z,6.04
2017-05-09T04:05:01.062Z,6.09
2017-05-09T04:05:41.940Z,6.11
2017-05-09T04:06:22.816Z,6.09
2017-05-09T04:07:03.710Z,6.14
2017-05-09T04:07:44.593Z,6.12
2017-05-09T04:08:25.473Z,6.22
2017-05-09T04:09:06.349Z,6.14
2017-05-09T04:09:47.259Z,6.19
2017-05-09T04:10:28.115Z,6.16
2017-05-09T04:11:09.006Z,6.19
2017-05-09T04:11:49.866Z,6.19
2017-05-09T04:12:30.745Z,6.16
2017-05-09T04:13:11.647Z,6.14
2017-05-09T04:13:52.522Z,6.14
2017-05-09T04:14:33.403Z,6.14
2017-05-09T04:15:14.275Z,6.2
2017-05-09T04:15:55.169Z,6.17
2017-05-09T04:16:36.054Z,6.17
2017-05-09T04:17:16.942Z,6.24
2017-05-09T04:17:57.793Z,6.33
2017-05-09T04:18:38.668Z,6.24
2017-05-09T04:19:19.562Z,6.3
2017-05-09T04:20:00.446Z,6.35
2017-05-09T04:20:41.313Z,6.28
2017-05-09T04:21:22.204Z,6.31
2017-05-09T04:22:03.094Z,6.33
2017-05-09T04:22:43.982Z,6.3
2017-05-09T04:23:24.857Z,6.33
2017-05-09T04:24:05.732Z,6.3
2017-05-09T04:24:46.613Z,6.33
2017-05-09T04:25:27.499Z,6.33
2017-05-09T04:26:08.375Z,6.3
2017-05-09T04:26:49.290Z,6.33
2017-05-09T04:27:30.180Z,6.28
2017-05-09T04:28:11.055Z,6.31
2017-05-09T04:28:51.924Z,6.33
2017-05-09T04:29:32.800Z,6.41
2017-05-09T04:30:13.692Z,6.44
2017-05-09T04:30:54.570Z,6.46
2017-05-09T04:31:35.434Z,6.39
2017-05-09T04:32:16.314Z,6.49
2017-05-09T04:32:57.191Z,6.39
2017-05-09T04:33:38.085Z,6.41
2017-05-09T04:34:18.965Z,6.42
2017-05-09T04:34:59.846Z,6.42
2017-05-09T04:35:40.710Z,6.38
2017-05-09T04:36:21.585Z,6.46
2017-05-09T04:37:02.461Z,6.36
2017-05-09T04:37:43.360Z,6.54
2017-05-09T04:38:24.238Z,6.56
2017-05-09T04:39:05.098Z,6.54
2017-05-09T04:39:45.981Z,6.46
2017-05-09T04:40:26.860Z,6.45
2017-05-09T04:41:07.751Z,6.51
2017-05-09T04:41:48.617Z,6.57
2017-05-09T04:42:29.508Z,6.62
2017-05-09T04:43:10.373Z,6.67
2017-05-09T04:43:51.263Z,6.66
2017-05-09T04:44:32.150Z,6.69
2017-05-09T04:45:13.023Z,6.72
2017-05-09T04:45:53.903Z,6.74
2017-05-09T04:46:34.817Z,6.75
2017-05-09T04:47:15.751Z,6.75
2017-05-09T04:47:56.638Z,6.77
2017-05-09T04:48:37.513Z,6.87
2017-05-09T04:49:18.389Z,6.87
2017-05-09T04:49:59.285Z,6.88
2017-05-09T04:50:40.169Z,6.89
2017-05-09T04:51:21.045Z,6.75
2017-05-09T04:52:01.923Z,6.81
2017-05-09T04:52:42.821Z,6.84
2017-05-09T04:53:23.689Z,6.87
2017-05-09T04:54:04.568Z,7.03
2017-05-09T04:54:45.454Z,6.92
2017-05-09T04:55:26.342Z,7.03
2017-05-09T04:56:07.232Z,7.02
2017-05-09T04:56:48.109Z,7.03
2017-05-09T04:57:28.980Z,7.07
2017-05-09T04:58:09.856Z,7.03
2017-05-09T04:58:50.744Z,7.07
2017-05-09T04:59:31.619Z,7.11
2017-05-09T05:00:12.481Z,7.17
2017-05-09T05:00:53.352Z,7.2
2017-05-09T05:01:34.224Z,7.17
2017-05-09T05:02:15.106Z,7.17
2017-05-09T05:02:55.988Z,7.24
2017-05-09T05:03:36.875Z,7.23
2017-05-09T05:04:17.754Z,7.2
2017-05-09T05:04:58.630Z,7.31
2017-05-09T05:05:39.552Z,7.33
2017-05-09T05:06:20.416Z,7.36
2017-05-09T05:07:01.301Z,7.4
2017-05-09T05:07:42.157Z,7.38
2017-05-09T05:08:23.048Z,7.28
2017-05-09T05:09:03.937Z,7.2
2017-05-09T05:09:44.816Z,7.28
2017-05-09T05:10:25.684Z,7.28
2017-05-09T05:11:06.563Z,7.32
2017-05-09T05:11:47.458Z,7.39
2017-05-09T05:12:28.351Z,7.4
2017-05-09T05:13:09.217Z,7.25
2017-05-09T05:14:57.422Z,7.38
2017-05-09T05:15:38.306Z,7.38
2017-05-09T05:16:19.193Z,7.32
2017-05-09T05:17:00.072Z,7.39
2017-05-09T05:17:40.960Z,7.35
2017-05-09T05:18:21.836Z,7.53
2017-05-09T05:19:02.718Z,7.56
2017-05-09T05:19:43.584Z,7.47
2017-05-09T05:20:24.485Z,7.51
2017-05-09T05:21:05.365Z,7.53
2017-05-09T05:21:46.236Z,7.51
2017-05-09T05:22:27.158Z,7.57
2017-05-09T05:23:08.027Z,7.58
2017-05-09T05:23:48.908Z,7.63
2017-05-09T05:24:29.812Z,7.58
2017-05-09T05:25:10.753Z,7.63
2017-05-09T05:25:51.642Z,7.66
2017-05-09T05:26:32.538Z,7.66
2017-05-09T05:27:13.417Z,7.67
2017-05-09T05:27:54.296Z,7.67
2017-05-09T05:28:35.172Z,7.66
2017-05-09T05:29:16.070Z,7.7
2017-05-09T05:29:56.945Z,7.77
2017-05-09T05:30:37.828Z,7.66
2017-05-09T05:31:18.710Z,7.63
2017-05-09T05:31:59.592Z,7.75
2017-05-09T05:32:40.464Z,7.73
2017-05-09T05:33:21.342Z,7.79
2017-05-09T05:34:02.226Z,7.87
2017-05-09T05:34:43.111Z,7.83
2017-05-09T05:35:23.998Z,7.87
2017-05-09T05:36:04.876Z,7.77
2017-05-09T05:36:45.763Z,7.85
2017-05-09T05:37:26.660Z,7.97
2017-05-09T05:38:07.538Z,7.93
2017-05-09T05:38:48.421Z,8
2017-05-09T05:39:29.291Z,8.01
2017-05-09T05:40:10.165Z,8.06
2017-05-09T05:40:51.063Z,8.03
2017-05-09T05:41:31.908Z,8.03
2017-05-09T05:42:12.860Z,7.98
2017-05-09T05:42:53.740Z,7.95
2017-05-09T05:43:34.617Z,7.97
2017-05-09T05:44:15.513Z,8.06
2017-05-09T05:44:56.571Z,8.03
2017-05-09T05:45:37.461Z,8.08
2017-05-09T05:46:18.416Z,8.19
2017-05-09T05:47:01.024Z,8.13
2017-05-09T05:47:43.810Z,8.2
2017-05-09T05:50:04.651Z,8.28
2017-05-09T05:50:45.517Z,8.27
2017-05-09T05:51:26.393Z,8.36
2017-05-09T05:52:07.283Z,8.41
2017-05-09T05:52:48.197Z,8.33
2017-05-09T05:55:01.908Z,8.26
2017-05-09T05:55:42.791Z,8.27
2017-05-09T05:56:23.680Z,8.27
2017-05-09T05:57:04.638Z,8.18
2017-05-09T05:57:45.528Z,8.28
2017-05-09T05:58:26.427Z,8.37
2017-05-09T05:59:07.315Z,8.41
2017-05-09T05:59:48.184Z,8.45
2017-05-09T06:00:29.088Z,8.42
2017-05-09T06:01:10.026Z,8.38
2017-05-09T06:01:50.914Z,8.42
2017-05-09T06:02:31.793Z,8.52
2017-05-09T06:03:12.680Z,8.44
2017-05-09T06:03:53.568Z,8.42
2017-05-09T06:04:34.472Z,8.33
2017-05-09T06:05:15.363Z,8.37
2017-05-09T06:05:56.237Z,8.36
2017-05-09T06:06:37.109Z,8.36
2017-05-09T06:07:17.983Z,8.38
2017-05-09T06:07:58.860Z,8.33
2017-05-09T06:08:39.748Z,8.38
2017-05-09T06:09:20.625Z,8.49
2017-05-09T06:10:01.533Z,8.45
2017-05-09T06:10:42.375Z,8.41
2017-05-09T06:11:23.265Z,8.38
2017-05-09T06:12:04.161Z,8.46
2017-05-09T06:12:45.037Z,8.36
2017-05-09T06:13:25.916Z,8.38
2017-05-09T06:14:06.800Z,8.33
2017-05-09T06:14:47.682Z,8.16
2017-05-09T06:15:28.571Z,8.16
2017-05-09T06:16:09.436Z,8.16
2017-05-09T06:16:50.296Z,8.13
2017-05-09T06:17:31.182Z,8.15
2017-05-09T06:18:12.066Z,8.13
2017-05-09T06:18:52.944Z,8.12
2017-05-09T06:19:33.821Z,8.27
2017-05-09T06:20:14.711Z,8.18
2017-05-09T06:20:55.587Z,8.24
2017-05-09T06:21:36.468Z,8.2
2017-05-09T06:22:17.342Z,8.28
2017-05-09T06:22:58.225Z,8.36
2017-05-09T06:23:39.102Z,8.41
2017-05-09T06:24:19.971Z,8.41
2017-05-09T06:25:00.844Z,8.33
2017-05-09T06:25:41.719Z,8.42
2017-05-09T06:26:22.582Z,8.34
2017-05-09T06:27:03.472Z,8.58
2017-05-09T06:27:44.347Z,8.73
2017-05-09T06:28:25.245Z,8.71
2017-05-09T06:29:06.105Z,8.55
2017-05-09T06:29:46.981Z,8.71
2017-05-09T06:30:27.848Z,8.85
2017-05-09T06:31:08.735Z,9
2017-05-09T06:31:49.575Z,8.92
2017-05-09T06:32:30.436Z,8.89
2017-05-09T06:33:11.330Z,8.87
2017-05-09T06:33:52.247Z,8.81
2017-05-09T06:34:33.110Z,8.84
2017-05-09T06:35:13.999Z,8.99
2017-05-09T06:35:54.864Z,9.08
2017-05-09T06:36:35.730Z,9.14
2017-05-09T06:37:16.597Z,8.95
2017-05-09T06:37:57.451Z,9.03
2017-05-09T06:38:38.317Z,9.29
2017-05-09T06:40:31.944Z,9.48
2017-05-09T06:41:12.837Z,9.59
2017-05-09T06:41:53.764Z,9.46
2017-05-09T06:42:34.650Z,9.4
2017-05-09T06:43:15.535Z,9.46
2017-05-09T06:43:56.412Z,9.68
2017-05-09T06:44:37.294Z,9.79
2017-05-09T06:45:18.214Z,9.73
2017-05-09T06:45:59.075Z,9.64
2017-05-09T06:46:39.960Z,9.66
2017-05-09T06:47:20.845Z,9.82
2017-05-09T06:48:01.744Z,9.86
2017-05-09T06:48:42.638Z,9.94
2017-05-09T06:49:23.518Z,9.8
2017-05-09T06:50:04.404Z,10.05
2017-05-09T06:50:45.290Z,10.26
2017-05-09T06:51:26.170Z,10.22
2017-05-09T06:52:07.064Z,10.4
2017-05-09T06:52:47.944Z,10.19
2017-05-09T06:53:28.808Z,10.23
2017-05-09T06:54:09.687Z,10.35
2017-05-09T06:54:50.566Z,10.2
2017-05-09T06:55:31.641Z,10.23
2017-05-09T06:56:12.525Z,10.26
2017-05-09T06:56:53.418Z,10.31
2017-05-09T06:57:34.297Z,10.2
2017-05-09T06:58:15.184Z,10.23
2017-05-09T06:58:56.070Z,9.94
2017-05-09T06:59:36.952Z,9.87
2017-05-09T07:00:17.865Z,9.72
2017-05-09T07:00:58.742Z,9.58
2017-05-09T07:01:39.632Z,9.69
2017-05-09T07:02:20.514Z,9.94
2017-05-09T07:03:01.420Z,10.23
2017-05-09T07:03:42.297Z,10.34
2017-05-09T07:04:23.175Z,10.44
2017-05-09T07:05:04.044Z,10.67
2017-05-09T07:05:44.929Z,10.75
2017-05-09T07:06:25.823Z,10.94
2017-05-09T07:07:06.706Z,10.97
2017-05-09T07:07:47.578Z,11.04
2017-05-09T07:08:28.459Z,11.02
2017-05-09T07:09:09.364Z,10.94
2017-05-09T07:09:50.239Z,10.9
2017-05-09T07:10:31.133Z,10.71
2017-05-09T07:11:12.120Z,10.68
2017-05-09T07:11:52.983Z,10.67
2017-05-09T07:12:33.865Z,10.82
2017-05-09T07:13:14.746Z,10.87
2017-05-09T07:13:55.625Z,10.9
2017-05-09T07:14:36.545Z,11.11
2017-05-09T07:15:17.405Z,11.23
2017-05-09T07:15:58.293Z,11.35
2017-05-09T07:16:39.188Z,11.27
2017-05-09T07:17:20.076Z,11.08
2017-05-09T07:18:00.955Z,11.11
2017-05-09T07:18:41.844Z,11.35
2017-05-09T07:19:22.732Z,11.73
2017-05-09T07:21:16.440Z,12.47
2017-05-09T07:21:57.343Z,12.67
2017-05-09T07:22:38.229Z,12.57
2017-05-09T07:24:06.311Z,13.38
2017-05-09T07:24:47.182Z,13.54
2017-05-09T07:25:28.079Z,13.99
2017-05-09T07:26:08.967Z,14.33
2017-05-09T07:26:49.858Z,14.68
2017-05-09T07:27:30.772Z,15.1
2017-05-09T07:28:11.655Z,15.67
2017-05-09T07:28:52.543Z,16.12
2017-05-09T07:29:33.393Z,16.72
2017-05-09T07:30:14.272Z,17.04
2017-05-09T07:30:55.229Z,16.83
2017-05-09T07:31:36.042Z,16.58
2017-05-09T07:32:16.953Z,16.09
2017-05-09T07:32:57.868Z,16
2017-05-09T07:34:36.125Z,15.84
2017-05-09T07:35:17.789Z,15.19
2017-05-09T07:36:02.885Z,14.79
2017-05-09T07:37:51.346Z,15.43
2017-05-09T07:38:32.196Z,14.81
2017-05-09T07:39:13.103Z,14.79
2017-05-09T07:39:53.994Z,14.88
2017-05-09T07:40:34.884Z,14.97
2017-05-09T07:41:15.746Z,14.81
2017-05-09T07:41:56.699Z,14.84
2017-05-09T07:42:37.631Z,15.06
2017-05-09T07:43:18.542Z,14.96
2017-05-09T07:43:59.436Z,15.07
2017-05-09T07:49:48.032Z,16.35
2017-05-09T07:50:28.944Z,16.35
2017-05-09T07:51:09.840Z,16.38
2017-05-09T07:51:50.722Z,16.12
2017-05-09T07:52:31.609Z,15.29
2017-05-09T07:53:12.519Z,15.36
2017-05-09T07:53:53.399Z,15.39
2017-05-09T07:54:34.388Z,15.35
2017-05-09T07:55:15.274Z,15.27
2017-05-09T07:55:56.170Z,15.31
2017-05-09T07:56:37.062Z,14.99
2017-05-09T07:57:17.949Z,14.99
2017-05-09T07:57:58.889Z,14.78
2017-05-09T07:58:39.799Z,14.36
2017-05-09T07:59:20.692Z,14.03
2017-05-09T08:00:01.584Z,14.07
2017-05-09T08:00:42.477Z,13.92
2017-05-09T08:01:23.357Z,14.25
2017-05-09T08:02:04.261Z,14.3
2017-05-09T08:02:45.164Z,14.26
2017-05-09T08:03:26.081Z,13.95
2017-05-09T08:04:06.987Z,13.71
2017-05-09T08:04:47.886Z,14
2017-05-09T08:05:28.776Z,14.04
2017-05-09T08:06:09.662Z,14.12
2017-05-09T08:06:50.548Z,14.05
2017-05-09T08:07:31.451Z,14.22
2017-05-09T08:08:12.333Z,14.36
2017-05-09T08:08:53.224Z,14.35
2017-05-09T08:09:34.107Z,14.43
2017-05-09T08:10:14.984Z,14.18
2017-05-09T08:10:55.876Z,14.4
2017-05-09T08:11:36.766Z,14.69
2017-05-09T08:12:17.666Z,14.66
2017-05-09T08:12:58.543Z,14.7
2017-05-09T08:13:39.432Z,14.53
2017-05-09T08:14:20.312Z,14.6
2017-05-09T08:15:01.201Z,14.69
2017-05-09T08:15:42.103Z,14.91
2017-05-09T08:16:22.988Z,15.28
2017-05-09T08:17:03.872Z,15.9
2017-05-09T08:17:44.759Z,15.94
2017-05-09T08:18:25.663Z,16.35
2017-05-09T08:19:06.592Z,16.39
2017-05-09T08:19:47.458Z,17.06
2017-05-09T08:20:28.343Z,17.34
2017-05-09T08:21:09.226Z,17.64
2017-05-09T08:21:50.133Z,17.16
2017-05-09T08:22:31.018Z,17.05
2017-05-09T08:24:04.382Z,17.63
2017-05-09T08:24:45.262Z,17.11
2017-05-09T08:25:26.152Z,16.75
2017-05-09T08:26:07.055Z,17.16
2017-05-09T08:26:47.971Z,17.68
2017-05-09T08:27:28.850Z,17.48
2017-05-09T08:28:09.785Z,17.74
2017-05-09T08:28:50.685Z,17.83
2017-05-09T08:29:31.572Z,17.95
2017-05-09T08:30:12.457Z,18.05
2017-05-09T08:30:53.346Z,17.67
2017-05-09T08:31:34.231Z,17.54
2017-05-09T08:32:15.116Z,17.72
2017-05-09T08:32:56.005Z,17.94
2017-05-09T08:33:36.914Z,18.03
2017-05-09T08:34:17.807Z,17.59
2017-05-09T08:34:58.702Z,17.33
2017-05-09T08:35:39.588Z,16.31
2017-05-09T08:36:20.481Z,15.8
2017-05-09T08:37:01.370Z,15.49
2017-05-09T08:37:42.263Z,15.73
2017-05-09T08:38:23.134Z,15.39
2017-05-09T08:39:04.010Z,14.96
2017-05-09T08:39:44.896Z,14.89
2017-05-09T08:40:25.789Z,14.5
2017-05-09T08:41:06.674Z,14.28
2017-05-09T08:41:47.577Z,13.54
2017-05-09T08:42:28.438Z,13.28
2017-05-09T08:43:09.317Z,12.94
2017-05-09T08:43:50.196Z,12.87
2017-05-09T08:44:31.080Z,12.85
2017-05-09T08:45:11.962Z,12.53
2017-05-09T08:45:52.850Z,12.37
2017-05-09T08:46:33.722Z,12.12
2017-05-09T08:47:14.624Z,12.28
2017-05-09T08:47:55.498Z,12.32
2017-05-09T08:48:36.394Z,12.62
2017-05-09T08:49:17.272Z,12.61
2017-05-09T08:49:58.148Z,12.76
2017-05-09T08:50:39.031Z,12.68
2017-05-09T08:51:19.920Z,12.76
2017-05-09T08:52:00.804Z,12.78
2017-05-09T08:52:41.679Z,12.83
2017-05-09T08:53:22.553Z,12.95
2017-05-09T08:54:03.444Z,12.95
2017-05-09T08:54:44.334Z,12.83
2017-05-09T08:55:25.235Z,12.76
2017-05-09T08:56:06.127Z,12.7
2017-05-09T08:56:47.023Z,12.58
2017-05-09T08:57:27.895Z,12.76
2017-05-09T08:58:08.782Z,12.54
2017-05-09T08:58:49.667Z,12.39
2017-05-09T08:59:30.573Z,12.28
2017-05-09T09:00:11.446Z,11.99
2017-05-09T09:00:52.337Z,12.02
2017-05-09T09:01:33.215Z,12.02
2017-05-09T09:02:14.102Z,12.2
2017-05-09T09:02:54.976Z,12.35
2017-05-09T09:03:35.843Z,12.61
2017-05-09T09:04:16.727Z,12.98
2017-05-09T09:04:57.618Z,12.87
2017-05-09T09:05:38.494Z,13.12
2017-05-09T09:06:19.375Z,13.23
2017-05-09T09:07:00.293Z,13.59
2017-05-09T09:07:41.174Z,13.85
2017-05-09T09:08:22.039Z,13.85
2017-05-09T09:09:02.936Z,13.92
2017-05-09T09:09:43.871Z,14.26
2017-05-09T09:10:24.756Z,14.54
2017-05-09T09:11:05.645Z,14.77
2017-05-09T09:11:46.519Z,14.85
2017-05-09T09:12:27.429Z,15.17
2017-05-09T09:13:08.321Z,15.35
2017-05-09T09:13:49.236Z,15.43
2017-05-09T09:14:30.140Z,15.67
2017-05-09T09:15:11.017Z,15.68
2017-05-09T09:15:51.936Z,15.98
2017-05-09T09:16:32.834Z,15.97
2017-05-09T09:17:13.716Z,16
2017-05-09T09:17:54.592Z,15.67
2017-05-09T09:18:35.497Z,15.73
2017-05-09T09:19:16.444Z,15.58